createdAt,value
2022-07-27T00:03:04.259Z,73.91
2022-07-27T00:07:55.947Z,74.12
2022-07-27T00:12:47.969Z,74.64
2022-07-27T00:17:39.647Z,74.60
2022-07-27T00:22:31.330Z,74.88
2022-07-27T00:27:22.952Z,75.33
2022-07-27T00:32:14.621Z,75.63
2022-07-27T00:37:06.606Z,75.92
2022-07-27T00:41:58.546Z,76.13
2022-07-27T00:46:50.254Z,76.14
2022-07-27T00:51:41.964Z,76.06
2022-07-27T00:56:34.279Z,76.81
2022-07-27T01:01:26.023Z,76.43
2022-07-27T01:06:23.372Z,76.73
2022-07-27T01:11:19.059Z,77.14
2022-07-27T01:16:11.284Z,77.04
2022-07-27T01:21:06.847Z,77.66
2022-07-27T01:25:59.677Z,78.05
2022-07-27T01:30:51.360Z,77.94
2022-07-27T01:35:43.069Z,78.14
2022-07-27T01:40:36.963Z,78.94
2022-07-27T01:45:28.757Z,79.65
2022-07-27T01:50:20.486Z,79.49
2022-07-27T01:55:13.008Z,79.38
2022-07-27T02:00:11.186Z,80.13
2022-07-27T02:05:03.444Z,80.42
2022-07-27T02:09:55.393Z,80.10
2022-07-27T02:14:47.180Z,80.96
2022-07-27T02:19:38.850Z,80.68
2022-07-27T02:24:30.457Z,81.24
2022-07-27T02:29:22.087Z,81.28
2022-07-27T02:34:13.756Z,81.52
2022-07-27T02:39:05.442Z,81.79
2022-07-27T02:43:58.289Z,82.34
2022-07-27T02:48:50.362Z,82.34
2022-07-27T02:53:42.216Z,82.66
2022-07-27T02:58:34.038Z,82.31
2022-07-27T03:03:34.498Z,82.10
2022-07-27T03:08:28.558Z,81.82
2022-07-27T03:13:20.225Z,81.81
2022-07-27T03:18:12.024Z,81.37
2022-07-27T03:23:03.649Z,82.72
2022-07-27T03:27:57.331Z,82.07
2022-07-27T03:32:52.226Z,81.64
2022-07-27T03:37:44.067Z,81.27
2022-07-27T03:42:35.741Z,82.10
2022-07-27T03:47:27.543Z,82.24
2022-07-27T03:52:20.239Z,81.89
2022-07-27T03:57:12.005Z,82.08
2022-07-27T04:02:05.052Z,81.89
2022-07-27T04:06:56.890Z,81.98
2022-07-27T04:11:51.174Z,81.89
2022-07-27T04:16:43.358Z,82.02
2022-07-27T04:21:35.403Z,82.64
2022-07-27T04:26:27.376Z,82.30
2022-07-27T04:31:19.081Z,82.90
2022-07-27T04:36:10.842Z,83.19
2022-07-27T04:41:02.636Z,83.84
2022-07-27T04:45:54.349Z,83.68
2022-07-27T04:50:47.394Z,83.97
2022-07-27T04:55:44.588Z,84.71
2022-07-27T05:00:36.541Z,85.90
2022-07-27T05:05:28.282Z,86.47
2022-07-27T05:10:20.899Z,85.33
2022-07-27T05:15:12.663Z,84.05
2022-07-27T05:20:05.205Z,84.56
2022-07-27T05:24:56.858Z,85.51
2022-07-27T05:29:49.713Z,87.31
2022-07-27T05:34:42.153Z,86.75
2022-07-27T05:39:33.879Z,85.67
2022-07-27T05:44:25.642Z,83.62
2022-07-27T05:49:17.586Z,81.02
2022-07-27T05:54:09.583Z,78.20
2022-07-27T05:59:06.493Z,76.73
2022-07-27T06:04:01.675Z,75.32
2022-07-27T06:08:54.256Z,74.67
2022-07-27T06:13:46.031Z,72.44
2022-07-27T06:18:37.930Z,69.53
2022-07-27T06:23:29.828Z,66.35
2022-07-27T06:28:21.710Z,66.11
2022-07-27T06:33:14.550Z,65.24
2022-07-27T06:38:06.925Z,63.84
2022-07-27T06:42:59.205Z,62.24
2022-07-27T06:47:51.344Z,56.40
2022-07-27T06:52:43.687Z,53.91
2022-07-27T06:57:35.427Z,54.70
2022-07-27T07:02:28.156Z,53.13
2022-07-27T07:07:21.002Z,53.75
2022-07-27T07:12:12.641Z,54.57
2022-07-27T07:17:04.471Z,48.92
2022-07-27T07:21:56.124Z,49.46
2022-07-27T07:26:47.885Z,48.82
2022-07-27T07:31:39.865Z,47.64
2022-07-27T07:36:31.770Z,46.18
2022-07-27T07:41:24.080Z,45.56
2022-07-27T07:46:15.942Z,43.21
2022-07-27T07:51:07.929Z,43.28
2022-07-27T07:56:00.475Z,42.44
2022-07-27T08:00:52.578Z,44.54
2022-07-27T08:05:44.817Z,43.01
2022-07-27T08:10:36.497Z,41.82
2022-07-27T08:15:33.089Z,40.52
2022-07-27T08:20:28.878Z,40.95
2022-07-27T08:25:20.635Z,40.19
2022-07-27T08:30:12.768Z,37.42
2022-07-27T08:35:05.846Z,36.98
2022-07-27T08:45:34.517Z,39.46
2022-07-27T08:50:28.306Z,40.41
2022-07-27T08:55:20.527Z,40.81
2022-07-27T09:00:12.981Z,39.65
2022-07-27T09:05:05.537Z,38.23
2022-07-27T09:09:57.166Z,37.56
2022-07-27T09:14:53.089Z,37.14
2022-07-27T09:19:59.987Z,35.96
2022-07-27T09:25:04.717Z,38.30
2022-07-27T09:30:17.954Z,36.84
2022-07-27T09:35:19.635Z,36.53
2022-07-27T09:40:13.651Z,35.96
2022-07-27T09:45:32.487Z,34.67
2022-07-27T09:50:31.100Z,36.61
2022-07-27T09:55:25.544Z,36.23
2022-07-27T10:00:17.855Z,35.83
2022-07-27T10:05:10.422Z,36.41
2022-07-27T10:10:02.911Z,31.42
2022-07-27T10:14:54.556Z,31.63
2022-07-27T10:19:49.942Z,33.43
2022-07-27T10:24:41.598Z,30.95
2022-07-27T10:29:33.365Z,32.39
2022-07-27T10:34:35.190Z,34.04
2022-07-27T10:39:33.117Z,33.71
2022-07-27T10:44:28.876Z,35.38
2022-07-27T10:49:29.390Z,33.37
2022-07-27T10:54:25.800Z,32.15
2022-07-27T11:00:06.874Z,32.66
2022-07-27T11:04:52.569Z,31.89
2022-07-27T11:14:59.403Z,31.94
2022-07-27T11:19:56.006Z,31.52
2022-07-27T11:24:49.801Z,34.75
2022-07-27T11:29:43.731Z,33.90
2022-07-27T11:34:36.845Z,33.32
2022-07-27T11:44:42.622Z,33.31
2022-07-27T11:49:34.810Z,33.84
2022-07-27T11:54:28.248Z,34.34
2022-07-27T11:59:27.947Z,34.91
2022-07-27T12:04:21.559Z,35.59
2022-07-27T12:09:16.063Z,35.77
2022-07-27T12:14:15.297Z,35.30
2022-07-27T12:19:07.218Z,34.41
2022-07-27T12:23:58.950Z,34.88
2022-07-27T12:29:13.343Z,36.15
2022-07-27T12:34:06.785Z,34.73
2022-07-27T12:38:58.887Z,35.16
2022-07-27T12:44:07.086Z,34.88
2022-07-27T12:48:58.827Z,35.18
2022-07-27T12:53:50.523Z,35.97
2022-07-27T12:59:01.406Z,34.68
2022-07-27T13:03:53.206Z,34.61
2022-07-27T13:08:45.094Z,35.62
2022-07-27T13:13:36.841Z,35.45
2022-07-27T13:18:28.572Z,35.43
2022-07-27T13:23:21.174Z,36.70
2022-07-27T13:28:13.111Z,37.41
2022-07-27T13:33:04.884Z,35.81
2022-07-27T13:37:56.701Z,36.35
2022-07-27T13:42:48.429Z,36.92
2022-07-27T13:47:41.236Z,37.50
2022-07-27T13:52:33.007Z,37.90
2022-07-27T13:57:24.757Z,37.69
2022-07-27T14:02:16.516Z,37.81
2022-07-27T14:07:14.574Z,37.97
2022-07-27T14:12:06.408Z,38.34
2022-07-27T14:16:58.143Z,38.74
2022-07-27T14:21:49.850Z,37.54
2022-07-27T14:26:41.549Z,37.56
2022-07-27T14:31:35.034Z,37.33
2022-07-27T14:36:26.741Z,37.68
2022-07-27T14:41:18.412Z,38.03
2022-07-27T14:46:10.036Z,38.41
2022-07-27T14:51:01.787Z,38.08
2022-07-27T14:55:53.787Z,37.70
2022-07-27T15:00:45.690Z,36.71
2022-07-27T15:05:50.107Z,37.29
2022-07-27T15:10:44.163Z,37.61
2022-07-27T15:15:35.785Z,37.36
2022-07-27T15:20:27.487Z,37.86
2022-07-27T15:25:19.169Z,38.42
2022-07-27T15:30:11.427Z,38.62
2022-07-27T15:35:03.555Z,39.13
2022-07-27T15:39:55.563Z,38.79
2022-07-27T15:44:47.225Z,38.91
2022-07-27T15:49:38.923Z,39.25
2022-07-27T15:54:33.892Z,39.07
2022-07-27T15:59:27.466Z,39.31
2022-07-27T16:04:19.190Z,39.55
2022-07-27T16:09:11.909Z,39.87
2022-07-27T16:14:03.784Z,40.82
2022-07-27T16:18:57.329Z,40.37
2022-07-27T16:23:49.982Z,39.82
2022-07-27T16:28:45.349Z,40.43
2022-07-27T16:33:37.310Z,40.33
2022-07-27T16:38:29.194Z,40.72
2022-07-27T16:43:20.886Z,40.97
2022-07-27T16:48:12.953Z,41.08
2022-07-27T16:53:05.136Z,40.98
2022-07-27T16:57:57.034Z,41.36
2022-07-27T17:02:48.658Z,42.08
2022-07-27T17:07:40.428Z,42.59
2022-07-27T17:12:35.333Z,42.62
2022-07-27T17:17:30.148Z,43.67
2022-07-27T17:22:21.774Z,43.20
2022-07-27T17:27:13.417Z,42.89
2022-07-27T17:32:05.290Z,43.25
2022-07-27T17:36:56.920Z,43.74
2022-07-27T17:41:49.935Z,44.04
2022-07-27T17:46:41.610Z,44.09
2022-07-27T17:51:34.677Z,45.51
2022-07-27T17:56:26.402Z,44.01
2022-07-27T18:01:18.251Z,45.82
2022-07-27T18:06:30.326Z,45.36
2022-07-27T18:11:22.033Z,46.67
2022-07-27T18:16:14.209Z,46.63
2022-07-27T18:21:06.392Z,46.36
2022-07-27T18:25:58.967Z,50.32
2022-07-27T18:30:52.492Z,52.13
2022-07-27T18:35:45.481Z,54.65
2022-07-27T18:40:38.551Z,56.54
2022-07-27T18:45:34.356Z,57.47
2022-07-27T18:50:27.204Z,58.64
2022-07-27T18:55:21.461Z,59.56
2022-07-27T19:00:13.725Z,60.52
2022-07-27T19:05:06.042Z,62.26
2022-07-27T19:09:58.467Z,63.63
2022-07-27T19:14:53.343Z,64.54
2022-07-27T19:19:45.724Z,65.97
2022-07-27T19:24:37.471Z,66.82
2022-07-27T19:29:29.201Z,67.71
2022-07-27T19:34:21.214Z,68.19
2022-07-27T19:39:13.488Z,68.46
2022-07-27T19:44:05.741Z,69.75
2022-07-27T19:48:57.712Z,69.42
2022-07-27T19:53:50.376Z,70.67
2022-07-27T19:58:42.688Z,71.33
2022-07-27T20:03:35.028Z,70.39
2022-07-27T20:08:45.877Z,72.57
2022-07-27T20:13:37.811Z,72.39
2022-07-27T20:18:30.697Z,72.89
2022-07-27T20:23:22.803Z,72.69
2022-07-27T20:28:14.446Z,72.39
2022-07-27T20:33:06.648Z,72.82
2022-07-27T20:37:59.441Z,73.59
2022-07-27T20:42:51.120Z,74.27
2022-07-27T20:47:43.006Z,74.68
2022-07-27T20:52:35.366Z,74.29
2022-07-27T20:57:27.079Z,75.60
2022-07-27T21:02:18.815Z,75.71
2022-07-27T21:07:10.595Z,74.88
2022-07-27T21:12:02.322Z,75.16
2022-07-27T21:16:54.054Z,75.72
2022-07-27T21:21:45.686Z,73.65
2022-07-27T21:26:38.034Z,75.19
2022-07-27T21:31:30.613Z,74.97
2022-07-27T21:36:22.990Z,76.23
2022-07-27T21:41:15.558Z,77.11
2022-07-27T21:46:07.556Z,77.88
2022-07-27T21:50:59.633Z,78.35
2022-07-27T21:55:51.381Z,78.59
2022-07-27T22:00:43.665Z,79.34
2022-07-27T22:05:35.769Z,79.16
2022-07-27T22:10:30.017Z,79.17
2022-07-27T22:15:21.669Z,80.08
2022-07-27T22:20:13.304Z,79.85
2022-07-27T22:25:05.386Z,80.33
2022-07-27T22:29:57.597Z,80.39
2022-07-27T22:34:49.335Z,81.66
2022-07-27T22:39:40.984Z,82.02
2022-07-27T22:44:32.678Z,82.51
2022-07-27T22:49:24.550Z,82.80
2022-07-27T22:54:16.992Z,83.72
2022-07-27T22:59:09.023Z,83.37
2022-07-27T23:04:00.706Z,82.65
2022-07-27T23:08:52.358Z,82.84
2022-07-27T23:13:43.991Z,83.22
2022-07-27T23:18:35.794Z,83.01
2022-07-27T23:23:27.677Z,82.97
2022-07-27T23:28:19.497Z,83.13
2022-07-27T23:33:11.943Z,82.91
2022-07-27T23:38:03.683Z,83.47
2022-07-27T23:42:55.457Z,82.90
2022-07-27T23:47:47.264Z,83.35
2022-07-27T23:52:39.187Z,83.75
2022-07-27T23:57:30.883Z,83.88
